sensor_id;sensor_type;location;lat;lon;timestamp;P1;durP1;ratioP1;P2;durP2;ratioP2
45356;SDS011;31092;51.924;21.448;2023-12-20T00:00:13;5.82;;;4.40;;
45356;SDS011;31092;51.924;21.448;2023-12-20T00:02:39;6.90;;;4.70;;
45356;SDS011;31092;51.924;21.448;2023-12-20T00:05:04;9.98;;;5.25;;
45356;SDS011;31092;51.924;21.448;2023-12-20T00:07:30;9.07;;;4.70;;
45356;SDS011;31092;51.924;21.448;2023-12-20T00:09:56;8.43;;;5.10;;
45356;SDS011;31092;51.924;21.448;2023-12-20T00:12:22;8.55;;;4.47;;
45356;SDS011;31092;51.924;21.448;2023-12-20T00:14:47;7.13;;;4.75;;
45356;SDS011;31092;51.924;21.448;2023-12-20T00:17:13;8.38;;;5.05;;
45356;SDS011;31092;51.924;21.448;2023-12-20T00:19:38;7.63;;;4.78;;
45356;SDS011;31092;51.924;21.448;2023-12-20T00:22:04;6.78;;;4.28;;
45356;SDS011;31092;51.924;21.448;2023-12-20T00:24:29;7.45;;;4.07;;
45356;SDS011;31092;51.924;21.448;2023-12-20T00:26:55;7.90;;;4.35;;
45356;SDS011;31092;51.924;21.448;2023-12-20T00:29:20;6.28;;;4.28;;
45356;SDS011;31092;51.924;21.448;2023-12-20T00:31:45;6.72;;;4.35;;
45356;SDS011;31092;51.924;21.448;2023-12-20T00:34:11;7.30;;;4.63;;
45356;SDS011;31092;51.924;21.448;2023-12-20T00:36:36;7.25;;;4.60;;
45356;SDS011;31092;51.924;21.448;2023-12-20T00:39:02;8.15;;;3.83;;
45356;SDS011;31092;51.924;21.448;2023-12-20T00:41:28;6.80;;;4.18;;
45356;SDS011;31092;51.924;21.448;2023-12-20T00:43:53;6.90;;;4.03;;
45356;SDS011;31092;51.924;21.448;2023-12-20T00:46:19;6.75;;;4.47;;
45356;SDS011;31092;51.924;21.448;2023-12-20T00:48:44;9.90;;;5.13;;
45356;SDS011;31092;51.924;21.448;2023-12-20T00:51:12;6.00;;;4.10;;
45356;SDS011;31092;51.924;21.448;2023-12-20T00:53:37;7.28;;;4.00;;
45356;SDS011;31092;51.924;21.448;2023-12-20T00:56:03;7.95;;;4.47;;
45356;SDS011;31092;51.924;21.448;2023-12-20T00:58:28;6.80;;;3.97;;
45356;SDS011;31092;51.924;21.448;2023-12-20T01:00:54;7.75;;;4.03;;
45356;SDS011;31092;51.924;21.448;2023-12-20T01:03:19;6.88;;;4.30;;
45356;SDS011;31092;51.924;21.448;2023-12-20T01:05:45;7.97;;;4.75;;
45356;SDS011;31092;51.924;21.448;2023-12-20T01:08:10;9.80;;;4.70;;
45356;SDS011;31092;51.924;21.448;2023-12-20T01:10:36;7.78;;;4.78;;
45356;SDS011;31092;51.924;21.448;2023-12-20T01:13:01;7.90;;;4.57;;
45356;SDS011;31092;51.924;21.448;2023-12-20T01:15:27;7.30;;;4.18;;
45356;SDS011;31092;51.924;21.448;2023-12-20T01:17:52;7.38;;;4.43;;
45356;SDS011;31092;51.924;21.448;2023-12-20T01:20:18;8.30;;;5.05;;
45356;SDS011;31092;51.924;21.448;2023-12-20T01:22:45;7.35;;;4.85;;
45356;SDS011;31092;51.924;21.448;2023-12-20T01:25:11;6.32;;;4.45;;
45356;SDS011;31092;51.924;21.448;2023-12-20T01:27:36;7.03;;;4.53;;
45356;SDS011;31092;51.924;21.448;2023-12-20T01:30:02;7.75;;;4.75;;
45356;SDS011;31092;51.924;21.448;2023-12-20T01:32:27;9.43;;;4.20;;
45356;SDS011;31092;51.924;21.448;2023-12-20T01:34:53;7.50;;;4.75;;
45356;SDS011;31092;51.924;21.448;2023-12-20T01:37:18;6.85;;;4.55;;
45356;SDS011;31092;51.924;21.448;2023-12-20T01:39:44;16.05;;;5.68;;
45356;SDS011;31092;51.924;21.448;2023-12-20T01:42:09;6.55;;;4.22;;
45356;SDS011;31092;51.924;21.448;2023-12-20T01:44:35;9.85;;;4.95;;
45356;SDS011;31092;51.924;21.448;2023-12-20T01:47:00;6.70;;;3.97;;
45356;SDS011;31092;51.924;21.448;2023-12-20T01:49:26;7.28;;;5.07;;
45356;SDS011;31092;51.924;21.448;2023-12-20T01:51:52;8.70;;;4.63;;
45356;SDS011;31092;51.924;21.448;2023-12-20T01:54:18;7.93;;;4.75;;
45356;SDS011;31092;51.924;21.448;2023-12-20T01:56:45;11.60;;;4.43;;
45356;SDS011;31092;51.924;21.448;2023-12-20T01:59:11;8.10;;;5.40;;
45356;SDS011;31092;51.924;21.448;2023-12-20T02:01:37;6.50;;;4.55;;
45356;SDS011;31092;51.924;21.448;2023-12-20T02:04:03;7.20;;;4.38;;
45356;SDS011;31092;51.924;21.448;2023-12-20T02:06:29;8.43;;;5.32;;
45356;SDS011;31092;51.924;21.448;2023-12-20T02:08:58;6.78;;;4.30;;
45356;SDS011;31092;51.924;21.448;2023-12-20T02:11:24;8.68;;;4.53;;
45356;SDS011;31092;51.924;21.448;2023-12-20T02:13:50;6.10;;;3.95;;
45356;SDS011;31092;51.924;21.448;2023-12-20T02:16:16;7.15;;;4.15;;
45356;SDS011;31092;51.924;21.448;2023-12-20T02:18:42;6.63;;;4.22;;
45356;SDS011;31092;51.924;21.448;2023-12-20T02:21:16;7.97;;;4.50;;
45356;SDS011;31092;51.924;21.448;2023-12-20T02:23:53;5.40;;;4.32;;
45356;SDS011;31092;51.924;21.448;2023-12-20T02:26:18;6.03;;;4.10;;
45356;SDS011;31092;51.924;21.448;2023-12-20T02:28:43;6.60;;;4.00;;
45356;SDS011;31092;51.924;21.448;2023-12-20T02:31:11;6.53;;;3.95;;
45356;SDS011;31092;51.924;21.448;2023-12-20T02:33:37;6.40;;;4.70;;
45356;SDS011;31092;51.924;21.448;2023-12-20T02:36:04;8.63;;;4.90;;
45356;SDS011;31092;51.924;21.448;2023-12-20T02:38:31;7.97;;;4.30;;
45356;SDS011;31092;51.924;21.448;2023-12-20T02:40:57;9.90;;;4.55;;
45356;SDS011;31092;51.924;21.448;2023-12-20T02:43:22;6.88;;;4.68;;
45356;SDS011;31092;51.924;21.448;2023-12-20T02:45:48;9.65;;;4.80;;
45356;SDS011;31092;51.924;21.448;2023-12-20T02:48:13;5.63;;;4.18;;
45356;SDS011;31092;51.924;21.448;2023-12-20T02:50:39;7.53;;;4.38;;
45356;SDS011;31092;51.924;21.448;2023-12-20T02:53:04;8.35;;;4.82;;
45356;SDS011;31092;51.924;21.448;2023-12-20T02:55:30;5.47;;;3.83;;
45356;SDS011;31092;51.924;21.448;2023-12-20T02:57:55;6.65;;;4.20;;
45356;SDS011;31092;51.924;21.448;2023-12-20T03:00:20;6.15;;;4.00;;
45356;SDS011;31092;51.924;21.448;2023-12-20T03:02:46;5.70;;;3.55;;
45356;SDS011;31092;51.924;21.448;2023-12-20T03:05:11;5.20;;;3.78;;
45356;SDS011;31092;51.924;21.448;2023-12-20T03:07:37;5.28;;;3.80;;
45356;SDS011;31092;51.924;21.448;2023-12-20T03:10:03;5.15;;;3.95;;
45356;SDS011;31092;51.924;21.448;2023-12-20T03:12:29;6.50;;;4.45;;
45356;SDS011;31092;51.924;21.448;2023-12-20T03:14:55;4.30;;;3.30;;
45356;SDS011;31092;51.924;21.448;2023-12-20T03:17:20;5.53;;;3.63;;
45356;SDS011;31092;51.924;21.448;2023-12-20T03:19:46;5.15;;;3.70;;
45356;SDS011;31092;51.924;21.448;2023-12-20T03:22:11;5.85;;;3.83;;
45356;SDS011;31092;51.924;21.448;2023-12-20T03:24:37;6.35;;;4.20;;
45356;SDS011;31092;51.924;21.448;2023-12-20T03:27:02;5.85;;;4.30;;
45356;SDS011;31092;51.924;21.448;2023-12-20T03:29:28;4.07;;;3.28;;
45356;SDS011;31092;51.924;21.448;2023-12-20T03:31:53;4.50;;;3.15;;
45356;SDS011;31092;51.924;21.448;2023-12-20T03:34:19;4.20;;;3.80;;
45356;SDS011;31092;51.924;21.448;2023-12-20T03:36:44;4.55;;;3.45;;
45356;SDS011;31092;51.924;21.448;2023-12-20T03:39:12;5.88;;;3.75;;
45356;SDS011;31092;51.924;21.448;2023-12-20T03:41:38;8.63;;;3.80;;
45356;SDS011;31092;51.924;21.448;2023-12-20T03:44:03;6.07;;;3.78;;
45356;SDS011;31092;51.924;21.448;2023-12-20T03:46:29;5.85;;;4.00;;
45356;SDS011;31092;51.924;21.448;2023-12-20T03:48:54;3.97;;;3.33;;
45356;SDS011;31092;51.924;21.448;2023-12-20T03:51:21;5.72;;;3.50;;
45356;SDS011;31092;51.924;21.448;2023-12-20T03:53:47;6.30;;;3.80;;
45356;SDS011;31092;51.924;21.448;2023-12-20T03:56:12;7.57;;;3.92;;
45356;SDS011;31092;51.924;21.448;2023-12-20T03:58:38;3.50;;;3.10;;
45356;SDS011;31092;51.924;21.448;2023-12-20T04:01:03;4.35;;;3.47;;
45356;SDS011;31092;51.924;21.448;2023-12-20T04:03:33;4.10;;;3.10;;
45356;SDS011;31092;51.924;21.448;2023-12-20T04:05:59;3.83;;;2.90;;
45356;SDS011;31092;51.924;21.448;2023-12-20T04:08:24;4.28;;;3.45;;
45356;SDS011;31092;51.924;21.448;2023-12-20T04:10:50;6.63;;;3.53;;
45356;SDS011;31092;51.924;21.448;2023-12-20T04:13:15;5.28;;;3.42;;
45356;SDS011;31092;51.924;21.448;2023-12-20T04:15:41;5.93;;;3.38;;
45356;SDS011;31092;51.924;21.448;2023-12-20T04:18:06;18.20;;;11.70;;
45356;SDS011;31092;51.924;21.448;2023-12-20T04:20:32;5.03;;;3.83;;
45356;SDS011;31092;51.924;21.448;2023-12-20T04:22:57;2.88;;;2.63;;
45356;SDS011;31092;51.924;21.448;2023-12-20T04:25:23;4.10;;;3.22;;
45356;SDS011;31092;51.924;21.448;2023-12-20T04:27:48;4.65;;;3.20;;
45356;SDS011;31092;51.924;21.448;2023-12-20T04:30:13;3.83;;;3.20;;
45356;SDS011;31092;51.924;21.448;2023-12-20T04:32:39;3.55;;;3.10;;
45356;SDS011;31092;51.924;21.448;2023-12-20T04:35:04;4.47;;;2.65;;
45356;SDS011;31092;51.924;21.448;2023-12-20T04:37:30;3.30;;;2.90;;
45356;SDS011;31092;51.924;21.448;2023-12-20T04:39:56;2.65;;;2.42;;
45356;SDS011;31092;51.924;21.448;2023-12-20T04:42:21;4.25;;;2.83;;
45356;SDS011;31092;51.924;21.448;2023-12-20T04:44:46;4.15;;;2.60;;
45356;SDS011;31092;51.924;21.448;2023-12-20T04:47:12;3.67;;;2.30;;
45356;SDS011;31092;51.924;21.448;2023-12-20T04:49:37;3.60;;;2.33;;
45356;SDS011;31092;51.924;21.448;2023-12-20T04:52:03;5.70;;;3.92;;
45356;SDS011;31092;51.924;21.448;2023-12-20T04:54:29;2.83;;;2.53;;
45356;SDS011;31092;51.924;21.448;2023-12-20T04:56:54;5.65;;;2.88;;
45356;SDS011;31092;51.924;21.448;2023-12-20T04:59:19;3.42;;;2.30;;
45356;SDS011;31092;51.924;21.448;2023-12-20T05:01:45;4.00;;;1.95;;
45356;SDS011;31092;51.924;21.448;2023-12-20T05:04:10;2.35;;;2.15;;
45356;SDS011;31092;51.924;21.448;2023-12-20T05:06:36;3.88;;;2.47;;
45356;SDS011;31092;51.924;21.448;2023-12-20T05:09:01;2.58;;;2.28;;
45356;SDS011;31092;51.924;21.448;2023-12-20T05:11:27;2.25;;;2.05;;
45356;SDS011;31092;51.924;21.448;2023-12-20T05:13:52;2.00;;;1.80;;
45356;SDS011;31092;51.924;21.448;2023-12-20T05:16:18;3.00;;;2.38;;
45356;SDS011;31092;51.924;21.448;2023-12-20T05:18:44;2.50;;;2.03;;
45356;SDS011;31092;51.924;21.448;2023-12-20T05:21:10;2.58;;;2.20;;
45356;SDS011;31092;51.924;21.448;2023-12-20T05:23:36;4.10;;;2.58;;
45356;SDS011;31092;51.924;21.448;2023-12-20T05:26:01;4.10;;;3.42;;
45356;SDS011;31092;51.924;21.448;2023-12-20T05:28:27;2.67;;;2.22;;
45356;SDS011;31092;51.924;21.448;2023-12-20T05:30:52;2.67;;;2.40;;
45356;SDS011;31092;51.924;21.448;2023-12-20T05:33:19;2.80;;;1.80;;
45356;SDS011;31092;51.924;21.448;2023-12-20T05:35:44;4.07;;;2.30;;
45356;SDS011;31092;51.924;21.448;2023-12-20T05:38:10;5.15;;;2.40;;
45356;SDS011;31092;51.924;21.448;2023-12-20T05:40:35;5.97;;;2.45;;
45356;SDS011;31092;51.924;21.448;2023-12-20T05:43:00;2.20;;;1.98;;
45356;SDS011;31092;51.924;21.448;2023-12-20T05:45:26;2.58;;;2.33;;
45356;SDS011;31092;51.924;21.448;2023-12-20T05:47:51;2.88;;;2.20;;
45356;SDS011;31092;51.924;21.448;2023-12-20T05:50:17;3.28;;;2.97;;
45356;SDS011;31092;51.924;21.448;2023-12-20T05:52:42;2.58;;;2.38;;
45356;SDS011;31092;51.924;21.448;2023-12-20T05:55:08;2.63;;;2.40;;
45356;SDS011;31092;51.924;21.448;2023-12-20T05:57:33;34.38;;;15.65;;
45356;SDS011;31092;51.924;21.448;2023-12-20T06:00:00;26.40;;;13.65;;
45356;SDS011;31092;51.924;21.448;2023-12-20T06:02:25;55.20;;;22.55;;
45356;SDS011;31092;51.924;21.448;2023-12-20T06:04:50;63.38;;;30.75;;
45356;SDS011;31092;51.924;21.448;2023-12-20T06:07:16;34.67;;;18.00;;
45356;SDS011;31092;51.924;21.448;2023-12-20T06:09:42;32.22;;;17.20;;
45356;SDS011;31092;51.924;21.448;2023-12-20T06:12:08;5.93;;;3.80;;
45356;SDS011;31092;51.924;21.448;2023-12-20T06:14:33;18.65;;;11.75;;
45356;SDS011;31092;51.924;21.448;2023-12-20T06:16:59;3.97;;;3.53;;
45356;SDS011;31092;51.924;21.448;2023-12-20T06:19:26;3.70;;;2.92;;
45356;SDS011;31092;51.924;21.448;2023-12-20T06:21:51;3.55;;;3.08;;
45356;SDS011;31092;51.924;21.448;2023-12-20T06:24:17;7.43;;;3.42;;
45356;SDS011;31092;51.924;21.448;2023-12-20T06:26:42;4.20;;;2.85;;
45356;SDS011;31092;51.924;21.448;2023-12-20T06:29:08;5.75;;;4.40;;
45356;SDS011;31092;51.924;21.448;2023-12-20T06:31:34;4.55;;;3.53;;
45356;SDS011;31092;51.924;21.448;2023-12-20T06:33:59;5.30;;;3.70;;
45356;SDS011;31092;51.924;21.448;2023-12-20T06:36:26;5.78;;;4.00;;
45356;SDS011;31092;51.924;21.448;2023-12-20T06:38:51;5.05;;;3.25;;
45356;SDS011;31092;51.924;21.448;2023-12-20T06:41:17;6.45;;;4.05;;
45356;SDS011;31092;51.924;21.448;2023-12-20T06:43:43;7.18;;;4.05;;
45356;SDS011;31092;51.924;21.448;2023-12-20T06:46:09;4.55;;;3.55;;
45356;SDS011;31092;51.924;21.448;2023-12-20T06:48:35;4.35;;;3.50;;
45356;SDS011;31092;51.924;21.448;2023-12-20T06:51:01;9.45;;;4.10;;
45356;SDS011;31092;51.924;21.448;2023-12-20T06:53:30;5.32;;;4.38;;
45356;SDS011;31092;51.924;21.448;2023-12-20T06:55:55;5.75;;;3.95;;
45356;SDS011;31092;51.924;21.448;2023-12-20T06:58:21;6.70;;;4.30;;
45356;SDS011;31092;51.924;21.448;2023-12-20T07:00:47;3.67;;;3.25;;
45356;SDS011;31092;51.924;21.448;2023-12-20T07:03:13;4.90;;;3.72;;
45356;SDS011;31092;51.924;21.448;2023-12-20T07:05:39;6.43;;;4.00;;
45356;SDS011;31092;51.924;21.448;2023-12-20T07:08:05;4.43;;;3.25;;
45356;SDS011;31092;51.924;21.448;2023-12-20T07:10:31;3.70;;;3.13;;
45356;SDS011;31092;51.924;21.448;2023-12-20T07:12:57;3.83;;;3.30;;
45356;SDS011;31092;51.924;21.448;2023-12-20T07:15:22;4.22;;;3.85;;
45356;SDS011;31092;51.924;21.448;2023-12-20T07:17:48;5.65;;;4.07;;
45356;SDS011;31092;51.924;21.448;2023-12-20T07:20:13;4.30;;;3.05;;
45356;SDS011;31092;51.924;21.448;2023-12-20T07:22:39;3.53;;;2.83;;
45356;SDS011;31092;51.924;21.448;2023-12-20T07:25:04;3.80;;;3.30;;
45356;SDS011;31092;51.924;21.448;2023-12-20T07:27:30;5.22;;;3.25;;
45356;SDS011;31092;51.924;21.448;2023-12-20T07:29:56;4.95;;;3.00;;
45356;SDS011;31092;51.924;21.448;2023-12-20T07:32:21;4.18;;;2.90;;
45356;SDS011;31092;51.924;21.448;2023-12-20T07:34:47;3.70;;;3.10;;
45356;SDS011;31092;51.924;21.448;2023-12-20T07:37:12;3.50;;;3.10;;
45356;SDS011;31092;51.924;21.448;2023-12-20T07:39:41;2.88;;;2.60;;
45356;SDS011;31092;51.924;21.448;2023-12-20T07:42:08;3.80;;;3.42;;
45356;SDS011;31092;51.924;21.448;2023-12-20T07:44:34;5.15;;;2.95;;
45356;SDS011;31092;51.924;21.448;2023-12-20T07:47:03;3.75;;;3.13;;
45356;SDS011;31092;51.924;21.448;2023-12-20T07:49:28;4.57;;;2.45;;
45356;SDS011;31092;51.924;21.448;2023-12-20T07:51:55;4.35;;;3.22;;
45356;SDS011;31092;51.924;21.448;2023-12-20T07:54:20;3.30;;;3.00;;
45356;SDS011;31092;51.924;21.448;2023-12-20T07:56:46;5.55;;;3.47;;
45356;SDS011;31092;51.924;21.448;2023-12-20T07:59:12;3.38;;;2.80;;
45356;SDS011;31092;51.924;21.448;2023-12-20T08:01:37;4.00;;;3.35;;
45356;SDS011;31092;51.924;21.448;2023-12-20T08:04:03;3.35;;;3.05;;
45356;SDS011;31092;51.924;21.448;2023-12-20T08:06:28;3.53;;;3.00;;
45356;SDS011;31092;51.924;21.448;2023-12-20T08:08:54;4.47;;;3.08;;
45356;SDS011;31092;51.924;21.448;2023-12-20T08:11:19;4.32;;;3.00;;
45356;SDS011;31092;51.924;21.448;2023-12-20T08:13:45;3.42;;;2.58;;
45356;SDS011;31092;51.924;21.448;2023-12-20T08:16:10;5.15;;;3.33;;
45356;SDS011;31092;51.924;21.448;2023-12-20T08:18:38;4.13;;;3.13;;
45356;SDS011;31092;51.924;21.448;2023-12-20T08:21:04;5.30;;;3.42;;
45356;SDS011;31092;51.924;21.448;2023-12-20T08:23:32;3.85;;;3.42;;
45356;SDS011;31092;51.924;21.448;2023-12-20T08:26:03;3.65;;;3.20;;
45356;SDS011;31092;51.924;21.448;2023-12-20T08:28:32;5.72;;;3.05;;
45356;SDS011;31092;51.924;21.448;2023-12-20T08:30:58;4.60;;;3.38;;
45356;SDS011;31092;51.924;21.448;2023-12-20T08:33:23;6.25;;;2.75;;
45356;SDS011;31092;51.924;21.448;2023-12-20T08:35:49;3.40;;;2.83;;
45356;SDS011;31092;51.924;21.448;2023-12-20T08:38:14;6.60;;;3.10;;
45356;SDS011;31092;51.924;21.448;2023-12-20T08:40:40;3.95;;;3.20;;
45356;SDS011;31092;51.924;21.448;2023-12-20T08:43:06;3.42;;;2.60;;
45356;SDS011;31092;51.924;21.448;2023-12-20T08:45:31;3.92;;;2.58;;
45356;SDS011;31092;51.924;21.448;2023-12-20T08:47:57;4.25;;;3.60;;
45356;SDS011;31092;51.924;21.448;2023-12-20T08:50:23;9.18;;;5.05;;
45356;SDS011;31092;51.924;21.448;2023-12-20T08:52:48;9.13;;;7.50;;
45356;SDS011;31092;51.924;21.448;2023-12-20T08:55:14;21.13;;;12.75;;
45356;SDS011;31092;51.924;21.448;2023-12-20T08:57:41;4.25;;;3.58;;
45356;SDS011;31092;51.924;21.448;2023-12-20T09:00:07;4.95;;;3.25;;
45356;SDS011;31092;51.924;21.448;2023-12-20T09:02:33;3.70;;;2.92;;
45356;SDS011;31092;51.924;21.448;2023-12-20T09:05:01;3.58;;;2.88;;
45356;SDS011;31092;51.924;21.448;2023-12-20T09:07:27;3.35;;;3.03;;
45356;SDS011;31092;51.924;21.448;2023-12-20T09:09:55;6.47;;;4.78;;
45356;SDS011;31092;51.924;21.448;2023-12-20T09:12:21;4.88;;;3.38;;
45356;SDS011;31092;51.924;21.448;2023-12-20T09:14:46;4.43;;;3.83;;
45356;SDS011;31092;51.924;21.448;2023-12-20T09:17:13;6.18;;;3.55;;
45356;SDS011;31092;51.924;21.448;2023-12-20T09:19:41;7.07;;;5.30;;
45356;SDS011;31092;51.924;21.448;2023-12-20T09:22:06;5.93;;;4.65;;
45356;SDS011;31092;51.924;21.448;2023-12-20T09:24:32;3.60;;;3.08;;
45356;SDS011;31092;51.924;21.448;2023-12-20T09:26:59;4.43;;;3.08;;
45356;SDS011;31092;51.924;21.448;2023-12-20T09:29:24;3.70;;;3.05;;
45356;SDS011;31092;51.924;21.448;2023-12-20T09:31:50;4.50;;;3.10;;
45356;SDS011;31092;51.924;21.448;2023-12-20T09:34:15;3.63;;;2.60;;
45356;SDS011;31092;51.924;21.448;2023-12-20T09:36:42;6.28;;;2.95;;
45356;SDS011;31092;51.924;21.448;2023-12-20T09:39:14;3.13;;;2.53;;
45356;SDS011;31092;51.924;21.448;2023-12-20T09:41:44;3.45;;;2.33;;
45356;SDS011;31092;51.924;21.448;2023-12-20T09:44:15;4.30;;;3.08;;
45356;SDS011;31092;51.924;21.448;2023-12-20T09:46:44;2.92;;;2.20;;
45356;SDS011;31092;51.924;21.448;2023-12-20T09:49:11;3.45;;;3.15;;
45356;SDS011;31092;51.924;21.448;2023-12-20T09:51:37;5.63;;;3.05;;
45356;SDS011;31092;51.924;21.448;2023-12-20T09:54:03;3.58;;;2.78;;
45356;SDS011;31092;51.924;21.448;2023-12-20T09:56:29;2.88;;;2.28;;
45356;SDS011;31092;51.924;21.448;2023-12-20T09:58:55;3.28;;;2.42;;
45356;SDS011;31092;51.924;21.448;2023-12-20T10:01:21;8.15;;;5.43;;
45356;SDS011;31092;51.924;21.448;2023-12-20T10:03:47;2.72;;;2.53;;
45356;SDS011;31092;51.924;21.448;2023-12-20T10:06:12;2.63;;;2.42;;
45356;SDS011;31092;51.924;21.448;2023-12-20T10:08:38;6.00;;;4.13;;
45356;SDS011;31092;51.924;21.448;2023-12-20T10:11:04;3.92;;;3.13;;
45356;SDS011;31092;51.924;21.448;2023-12-20T10:13:30;7.80;;;4.68;;
45356;SDS011;31092;51.924;21.448;2023-12-20T10:15:56;3.33;;;2.65;;
45356;SDS011;31092;51.924;21.448;2023-12-20T10:18:22;3.28;;;2.47;;
45356;SDS011;31092;51.924;21.448;2023-12-20T10:20:48;3.25;;;2.53;;
45356;SDS011;31092;51.924;21.448;2023-12-20T10:23:14;3.50;;;2.75;;
45356;SDS011;31092;51.924;21.448;2023-12-20T10:25:41;2.28;;;2.10;;
45356;SDS011;31092;51.924;21.448;2023-12-20T10:28:13;2.67;;;2.28;;
45356;SDS011;31092;51.924;21.448;2023-12-20T10:30:42;2.75;;;2.17;;
45356;SDS011;31092;51.924;21.448;2023-12-20T10:33:08;2.65;;;2.00;;
45356;SDS011;31092;51.924;21.448;2023-12-20T10:35:38;4.50;;;2.78;;
45356;SDS011;31092;51.924;21.448;2023-12-20T10:38:05;3.00;;;2.38;;
45356;SDS011;31092;51.924;21.448;2023-12-20T10:40:34;7.03;;;3.80;;
45356;SDS011;31092;51.924;21.448;2023-12-20T10:43:02;2.83;;;2.47;;
45356;SDS011;31092;51.924;21.448;2023-12-20T10:45:28;3.45;;;2.42;;
45356;SDS011;31092;51.924;21.448;2023-12-20T10:47:53;2.33;;;2.13;;
45356;SDS011;31092;51.924;21.448;2023-12-20T10:50:19;3.85;;;2.42;;
45356;SDS011;31092;51.924;21.448;2023-12-20T10:52:45;3.50;;;2.17;;
45356;SDS011;31092;51.924;21.448;2023-12-20T10:55:12;2.60;;;1.98;;
45356;SDS011;31092;51.924;21.448;2023-12-20T10:57:38;3.20;;;2.40;;
45356;SDS011;31092;51.924;21.448;2023-12-20T11:00:05;8.55;;;5.13;;
45356;SDS011;31092;51.924;21.448;2023-12-20T11:02:35;2.83;;;2.10;;
45356;SDS011;31092;51.924;21.448;2023-12-20T11:08:07;3.03;;;2.25;;
45356;SDS011;31092;51.924;21.448;2023-12-20T11:14:05;2.17;;;1.98;;
45356;SDS011;31092;51.924;21.448;2023-12-20T11:16:39;2.42;;;2.10;;
45356;SDS011;31092;51.924;21.448;2023-12-20T11:19:06;2.90;;;2.50;;
45356;SDS011;31092;51.924;21.448;2023-12-20T11:21:32;3.13;;;2.22;;
45356;SDS011;31092;51.924;21.448;2023-12-20T11:23:58;2.83;;;2.28;;
45356;SDS011;31092;51.924;21.448;2023-12-20T11:26:28;2.58;;;2.08;;
45356;SDS011;31092;51.924;21.448;2023-12-20T11:28:54;2.42;;;2.20;;
45356;SDS011;31092;51.924;21.448;2023-12-20T11:31:57;1.95;;;1.75;;
45356;SDS011;31092;51.924;21.448;2023-12-20T11:34:22;2.55;;;2.30;;
45356;SDS011;31092;51.924;21.448;2023-12-20T11:36:58;2.40;;;2.20;;
45356;SDS011;31092;51.924;21.448;2023-12-20T11:39:25;2.70;;;2.17;;
45356;SDS011;31092;51.924;21.448;2023-12-20T11:41:53;2.47;;;2.03;;
45356;SDS011;31092;51.924;21.448;2023-12-20T11:44:21;2.22;;;2.03;;
45356;SDS011;31092;51.924;21.448;2023-12-20T11:46:47;2.10;;;1.95;;
45356;SDS011;31092;51.924;21.448;2023-12-20T11:49:12;2.85;;;2.10;;
45356;SDS011;31092;51.924;21.448;2023-12-20T11:51:41;2.95;;;2.28;;
45356;SDS011;31092;51.924;21.448;2023-12-20T11:54:07;2.90;;;2.50;;
45356;SDS011;31092;51.924;21.448;2023-12-20T11:56:35;2.17;;;1.83;;
45356;SDS011;31092;51.924;21.448;2023-12-20T11:59:01;2.05;;;1.83;;
45356;SDS011;31092;51.924;21.448;2023-12-20T12:01:26;2.53;;;2.30;;
45356;SDS011;31092;51.924;21.448;2023-12-20T12:04:04;3.17;;;1.63;;
45356;SDS011;31092;51.924;21.448;2023-12-20T12:06:30;2.78;;;2.28;;
45356;SDS011;31092;51.924;21.448;2023-12-20T12:08:56;3.40;;;2.58;;
45356;SDS011;31092;51.924;21.448;2023-12-20T12:11:22;2.25;;;1.85;;
45356;SDS011;31092;51.924;21.448;2023-12-20T12:13:48;4.13;;;1.80;;
45356;SDS011;31092;51.924;21.448;2023-12-20T12:16:17;2.83;;;1.65;;
45356;SDS011;31092;51.924;21.448;2023-12-20T12:18:44;2.47;;;1.95;;
45356;SDS011;31092;51.924;21.448;2023-12-20T12:21:10;2.83;;;1.70;;
45356;SDS011;31092;51.924;21.448;2023-12-20T12:23:35;2.00;;;1.70;;
45356;SDS011;31092;51.924;21.448;2023-12-20T12:26:03;1.98;;;1.77;;
45356;SDS011;31092;51.924;21.448;2023-12-20T12:28:29;1.63;;;1.52;;
45356;SDS011;31092;51.924;21.448;2023-12-20T12:30:57;1.92;;;1.73;;
45356;SDS011;31092;51.924;21.448;2023-12-20T12:33:24;2.15;;;1.77;;
45356;SDS011;31092;51.924;21.448;2023-12-20T12:35:51;2.33;;;1.77;;
45356;SDS011;31092;51.924;21.448;2023-12-20T12:38:19;2.47;;;1.70;;
45356;SDS011;31092;51.924;21.448;2023-12-20T12:40:45;3.55;;;1.63;;
45356;SDS011;31092;51.924;21.448;2023-12-20T12:43:11;5.03;;;1.70;;
45356;SDS011;31092;51.924;21.448;2023-12-20T12:45:37;3.40;;;1.63;;
45356;SDS011;31092;51.924;21.448;2023-12-20T12:48:03;1.95;;;1.75;;
45356;SDS011;31092;51.924;21.448;2023-12-20T12:50:30;2.13;;;2.03;;
45356;SDS011;31092;51.924;21.448;2023-12-20T12:52:56;1.73;;;1.60;;
45356;SDS011;31092;51.924;21.448;2023-12-20T12:55:21;2.10;;;1.90;;
45356;SDS011;31092;51.924;21.448;2023-12-20T12:57:47;1.67;;;1.58;;
45356;SDS011;31092;51.924;21.448;2023-12-20T13:00:12;2.85;;;1.90;;
45356;SDS011;31092;51.924;21.448;2023-12-20T13:02:38;1.50;;;1.40;;
45356;SDS011;31092;51.924;21.448;2023-12-20T13:05:07;1.33;;;1.10;;
45356;SDS011;31092;51.924;21.448;2023-12-20T13:07:33;1.30;;;1.10;;
45356;SDS011;31092;51.924;21.448;2023-12-20T13:09:59;0.90;;;0.90;;
45356;SDS011;31092;51.924;21.448;2023-12-20T13:12:25;3.28;;;1.40;;
45356;SDS011;31092;51.924;21.448;2023-12-20T13:14:51;1.30;;;1.20;;
45356;SDS011;31092;51.924;21.448;2023-12-20T13:17:16;3.05;;;1.33;;
45356;SDS011;31092;51.924;21.448;2023-12-20T13:19:42;1.70;;;1.48;;
45356;SDS011;31092;51.924;21.448;2023-12-20T13:22:07;3.83;;;1.33;;
45356;SDS011;31092;51.924;21.448;2023-12-20T13:24:33;4.00;;;1.10;;
45356;SDS011;31092;51.924;21.448;2023-12-20T13:27:06;1.42;;;1.10;;
45356;SDS011;31092;51.924;21.448;2023-12-20T13:29:35;1.70;;;0.93;;
45356;SDS011;31092;51.924;21.448;2023-12-20T13:32:01;1.77;;;1.20;;
45356;SDS011;31092;51.924;21.448;2023-12-20T13:34:28;2.90;;;1.00;;
45356;SDS011;31092;51.924;21.448;2023-12-20T13:36:54;3.70;;;1.05;;
45356;SDS011;31092;51.924;21.448;2023-12-20T13:39:19;1.13;;;1.02;;
45356;SDS011;31092;51.924;21.448;2023-12-20T13:41:46;0.90;;;0.90;;
45356;SDS011;31092;51.924;21.448;2023-12-20T13:44:12;1.02;;;0.90;;
45356;SDS011;31092;51.924;21.448;2023-12-20T13:46:38;1.13;;;0.95;;
45356;SDS011;31092;51.924;21.448;2023-12-20T13:49:03;0.70;;;0.70;;
45356;SDS011;31092;51.924;21.448;2023-12-20T13:51:30;1.70;;;1.23;;
45356;SDS011;31092;51.924;21.448;2023-12-20T13:53:55;1.25;;;1.05;;
45356;SDS011;31092;51.924;21.448;2023-12-20T13:56:21;2.72;;;0.90;;
45356;SDS011;31092;51.924;21.448;2023-12-20T13:58:48;2.33;;;1.17;;
45356;SDS011;31092;51.924;21.448;2023-12-20T14:01:13;0.98;;;0.88;;
45356;SDS011;31092;51.924;21.448;2023-12-20T14:03:39;1.42;;;1.33;;
45356;SDS011;31092;51.924;21.448;2023-12-20T14:06:06;2.28;;;1.35;;
45356;SDS011;31092;51.924;21.448;2023-12-20T14:08:31;2.10;;;1.42;;
45356;SDS011;31092;51.924;21.448;2023-12-20T14:10:57;1.77;;;1.67;;
45356;SDS011;31092;51.924;21.448;2023-12-20T14:13:22;2.33;;;1.23;;
45356;SDS011;31092;51.924;21.448;2023-12-20T14:15:48;1.55;;;1.38;;
45356;SDS011;31092;51.924;21.448;2023-12-20T14:18:14;2.65;;;1.70;;
45356;SDS011;31092;51.924;21.448;2023-12-20T14:20:40;2.85;;;1.17;;
45356;SDS011;31092;51.924;21.448;2023-12-20T14:23:07;1.45;;;1.35;;
45356;SDS011;31092;51.924;21.448;2023-12-20T14:25:34;2.45;;;1.70;;
45356;SDS011;31092;51.924;21.448;2023-12-20T14:28:02;2.30;;;1.98;;
45356;SDS011;31092;51.924;21.448;2023-12-20T14:30:28;3.55;;;2.05;;
45356;SDS011;31092;51.924;21.448;2023-12-20T14:32:54;5.28;;;2.08;;